Briefing drone pour Coursan

Rechercher une autre localisation

Conditions de vol :


Nous sommes le : Mardi 03 août 2021
Il est 23:56 UTC (01:56 LT)

Lever de soleil : 04:13 UTC (06:13 LT)
Coucher de soleil : 19:33 UTC (21:33 LT)

Météo

L'essentiel des conditions de vol

VIGILANCE MÉTÉO FRANCE - Aude (11)
Pas de vigilances particulieres
CARTE TEMSI
CARTES DES FRONTS
METAR de LFMU
LFMU 022330Z AUTO 30007KT CAVOK 19/12 Q1016

Date d'émission: 02/08/2021
Heure d'émission: 23:30 UTC
Vent: 300° pour 7 KT (13 km/h)
Visibilité horizontale: > 10 km
Plafond : Plafond et visibilité OK (CAVOK)
Température: 19 °C
Point de rosée: 12 °C
Humidité: 64%
Pression (QNH): 1016 hPa
TAF de LFMU
LFMU 022031Z 0220/0315 CNL

Conditions prévues :

Heure d'émission : Bulletin éffectué le 02 à 20:00 UTC
Prévision : Valide du 02 a 20:00 UTC au 03 a 15:00 UTC
Nuages : à 0ft (0 m)
WEBCAM POUR COURSAN

Réglementation

Voler en sécurité

CARTES AERONAUTIQUE 1/500.000
CARTES VAC (LFMU)
SUP AIP




Chargement des AIP...
NOTAM (COURSAN + Terrain à proximité / FIR )




Chargement des NOTAMS...
CONTACT PREFECTURE 11


Avertissement : Les données mises à disposition sont indicatives. Oxygène Drone ne pourra être tenu responsable de dégâts causés aux biens et aux personnes.